createdAt,value
2022-10-09T00:01:16.221Z,6.22
2022-10-09T00:03:45.024Z,6.32
2022-10-09T00:06:14.215Z,6.30
2022-10-09T00:08:43.719Z,6.30
2022-10-09T00:11:16.846Z,6.37
2022-10-09T00:13:43.979Z,6.35
2022-10-09T00:16:12.615Z,6.40
2022-10-09T00:18:39.275Z,6.35
2022-10-09T00:21:06.060Z,6.27
2022-10-09T00:23:32.683Z,6.23
2022-10-09T00:26:01.604Z,6.19
2022-10-09T00:28:34.235Z,6.13
2022-10-09T00:31:10.923Z,6.15
2022-10-09T00:33:38.095Z,6.16
2022-10-09T00:36:07.652Z,6.14
2022-10-09T00:38:34.165Z,6.14
2022-10-09T00:41:00.730Z,6.12
2022-10-09T00:43:40.625Z,6.08
2022-10-09T00:46:18.729Z,6.02
2022-10-09T00:48:47.040Z,5.92
2022-10-09T00:51:13.604Z,5.89
2022-10-09T00:53:39.943Z,5.78
2022-10-09T00:56:06.593Z,5.67
2022-10-09T00:58:33.086Z,5.59
2022-10-09T01:00:59.483Z,5.53
2022-10-09T01:03:25.907Z,5.49
2022-10-09T01:06:19.602Z,5.50
2022-10-09T01:08:57.820Z,5.53
2022-10-09T01:11:32.542Z,5.59
2022-10-09T01:14:29.412Z,5.54
2022-10-09T01:17:19.351Z,5.50
2022-10-09T01:20:03.540Z,5.51
2022-10-09T01:22:50.367Z,5.49
2022-10-09T01:25:32.229Z,5.43
2022-10-09T01:27:59.903Z,5.45
2022-10-09T01:30:26.546Z,5.50
2022-10-09T01:32:54.942Z,5.53
2022-10-09T01:35:22.860Z,5.53
2022-10-09T01:37:52.212Z,5.57
2022-10-09T01:40:19.616Z,5.55
2022-10-09T01:42:48.842Z,5.54
2022-10-09T01:45:15.901Z,5.48
2022-10-09T01:47:42.988Z,5.43
2022-10-09T01:50:09.743Z,5.35
2022-10-09T01:52:48.475Z,5.30
2022-10-09T01:55:42.172Z,5.23
2022-10-09T01:58:28.326Z,5.14
2022-10-09T02:01:04.600Z,5.15
2022-10-09T02:03:32.812Z,5.09
2022-10-09T02:06:01.904Z,5.09
2022-10-09T02:08:30.510Z,5.09
2022-10-09T02:11:01.568Z,5.03
2022-10-09T02:13:28.907Z,4.97
2022-10-09T02:16:00.467Z,4.95
2022-10-09T02:18:37.290Z,4.92
2022-10-09T02:21:11.769Z,4.88
2022-10-09T02:23:40.071Z,4.86
2022-10-09T02:26:07.252Z,4.84
2022-10-09T02:28:33.759Z,4.85
2022-10-09T02:31:17.265Z,4.86
2022-10-09T02:33:43.762Z,4.85
2022-10-09T02:36:10.407Z,4.80
2022-10-09T02:38:36.837Z,4.75
2022-10-09T02:41:03.436Z,4.73
2022-10-09T02:43:29.801Z,4.73
2022-10-09T02:45:56.235Z,4.69
2022-10-09T02:48:22.626Z,4.69
2022-10-09T02:50:49.015Z,4.69
2022-10-09T02:53:15.460Z,4.70
2022-10-09T02:55:41.843Z,4.80
2022-10-09T02:58:08.166Z,4.77
2022-10-09T03:00:34.492Z,4.79
2022-10-09T03:03:00.885Z,4.76
2022-10-09T03:05:27.268Z,4.76
2022-10-09T03:07:53.595Z,4.77
2022-10-09T03:10:21.065Z,4.75
2022-10-09T03:12:48.180Z,4.76
2022-10-09T03:15:15.983Z,4.78
2022-10-09T03:17:42.343Z,4.80
2022-10-09T03:20:09.705Z,4.77
2022-10-09T03:22:36.057Z,4.76
2022-10-09T03:25:02.422Z,4.77
2022-10-09T03:27:30.744Z,4.70
2022-10-09T03:29:58.508Z,4.64
2022-10-09T03:32:25.725Z,4.62
2022-10-09T03:34:52.310Z,4.58
2022-10-09T03:37:18.653Z,4.55
2022-10-09T03:39:45.005Z,4.51
2022-10-09T03:42:11.339Z,4.50
2022-10-09T03:44:37.704Z,4.48
2022-10-09T03:47:04.194Z,4.50
2022-10-09T03:49:30.583Z,4.49
2022-10-09T03:51:56.988Z,4.43
2022-10-09T03:54:23.429Z,4.47
2022-10-09T03:56:49.747Z,4.52
2022-10-09T03:59:16.103Z,4.58
2022-10-09T04:01:42.514Z,4.56
2022-10-09T04:04:08.858Z,4.59
2022-10-09T04:06:35.264Z,4.51
2022-10-09T04:09:01.580Z,4.47
2022-10-09T04:11:27.947Z,4.49
2022-10-09T04:13:54.324Z,4.52
2022-10-09T04:16:20.979Z,4.47
2022-10-09T04:18:47.909Z,4.47
2022-10-09T04:21:14.442Z,4.40
2022-10-09T04:23:40.884Z,4.40
2022-10-09T04:26:07.256Z,4.36
2022-10-09T04:28:34.776Z,4.33
2022-10-09T04:31:01.394Z,4.29
2022-10-09T04:33:27.878Z,4.24
2022-10-09T04:35:55.740Z,4.25
2022-10-09T04:38:23.580Z,4.25
2022-10-09T04:41:00.614Z,4.22
2022-10-09T04:43:27.654Z,4.18
2022-10-09T04:45:55.361Z,4.12
2022-10-09T04:48:22.376Z,4.15
2022-10-09T04:50:48.964Z,4.16
2022-10-09T04:53:15.366Z,4.17
2022-10-09T04:55:43.030Z,4.12
2022-10-09T04:58:11.107Z,4.14
2022-10-09T05:00:45.436Z,4.10
2022-10-09T05:03:12.675Z,4.07
2022-10-09T05:05:39.218Z,4.04
2022-10-09T05:08:05.975Z,3.96
2022-10-09T05:10:32.720Z,3.88
2022-10-09T05:12:59.740Z,3.88
2022-10-09T05:15:26.483Z,3.75
2022-10-09T05:17:52.927Z,3.72
2022-10-09T05:20:19.260Z,3.77
2022-10-09T05:22:47.084Z,3.76
2022-10-09T05:25:13.983Z,3.85
2022-10-09T05:27:41.379Z,3.86
2022-10-09T05:30:08.883Z,3.88
2022-10-09T05:32:35.319Z,3.89
2022-10-09T05:35:01.748Z,3.99
2022-10-09T05:37:28.167Z,4.03
2022-10-09T05:39:54.595Z,4.06
2022-10-09T05:42:21.027Z,4.13
2022-10-09T05:44:47.376Z,4.16
2022-10-09T05:47:17.714Z,4.17
2022-10-09T05:49:44.046Z,4.17
2022-10-09T05:52:10.698Z,4.21
2022-10-09T05:54:37.027Z,4.24
2022-10-09T05:57:04.681Z,4.24
2022-10-09T05:59:31.065Z,4.26
2022-10-09T06:01:57.449Z,4.29
2022-10-09T06:04:24.965Z,4.34
2022-10-09T06:06:52.052Z,4.41
2022-10-09T06:09:25.273Z,4.50
2022-10-09T06:11:53.413Z,4.51
2022-10-09T06:14:22.154Z,4.53
2022-10-09T06:16:48.955Z,4.54
2022-10-09T06:19:17.372Z,4.54
2022-10-09T06:21:44.611Z,4.67
2022-10-09T06:24:18.252Z,4.72
2022-10-09T06:26:44.693Z,4.77
2022-10-09T06:29:11.031Z,4.80
2022-10-09T06:31:38.781Z,4.79
2022-10-09T06:34:05.222Z,4.87
2022-10-09T06:36:35.828Z,4.89
2022-10-09T06:39:05.548Z,4.90
2022-10-09T06:41:32.173Z,5.00
2022-10-09T06:44:04.694Z,5.01
2022-10-09T06:46:35.940Z,5.10
2022-10-09T06:49:02.755Z,5.15
2022-10-09T06:51:30.224Z,5.20
2022-10-09T06:53:59.128Z,5.28
2022-10-09T06:56:28.580Z,5.35
2022-10-09T06:58:55.306Z,5.38
2022-10-09T07:01:24.609Z,5.42
2022-10-09T07:04:03.651Z,5.38
2022-10-09T07:06:31.704Z,5.46
2022-10-09T07:09:00.167Z,5.46
2022-10-09T07:11:28.982Z,5.48
2022-10-09T07:13:59.440Z,5.62
2022-10-09T07:16:35.028Z,5.76
2022-10-09T07:19:03.803Z,5.91
2022-10-09T07:21:30.375Z,6.07
2022-10-09T07:23:59.643Z,6.24
2022-10-09T07:26:28.566Z,6.42
2022-10-09T07:28:55.703Z,6.51
2022-10-09T07:31:23.098Z,6.54
2022-10-09T07:33:53.527Z,6.56
2022-10-09T07:36:20.308Z,6.65
2022-10-09T07:38:51.421Z,6.70
2022-10-09T07:41:17.763Z,6.74
2022-10-09T07:43:44.137Z,6.74
2022-10-09T07:46:15.558Z,6.83
2022-10-09T07:48:42.055Z,6.87
2022-10-09T07:51:11.605Z,6.92
2022-10-09T07:53:38.480Z,6.96
2022-10-09T07:56:05.767Z,7.00
2022-10-09T07:58:32.508Z,7.07
2022-10-09T08:01:08.778Z,7.12
2022-10-09T08:03:36.740Z,7.12
2022-10-09T08:06:03.204Z,7.19
2022-10-09T08:08:29.732Z,7.20
2022-10-09T08:10:56.207Z,7.31
2022-10-09T08:13:22.602Z,7.41
2022-10-09T08:15:49.146Z,7.54
2022-10-09T08:18:15.845Z,7.70
2022-10-09T08:20:42.204Z,7.99
2022-10-09T08:23:08.702Z,8.29
2022-10-09T08:25:36.598Z,8.71
2022-10-09T08:28:04.098Z,8.78
2022-10-09T08:30:30.637Z,8.89
2022-10-09T08:32:57.109Z,9.11
2022-10-09T08:35:23.517Z,9.25
2022-10-09T08:37:49.912Z,9.39
2022-10-09T08:40:22.696Z,9.61
2022-10-09T08:43:04.739Z,9.96
2022-10-09T08:45:33.655Z,10.08
2022-10-09T08:48:12.214Z,10.16
2022-10-09T08:50:44.793Z,10.22
2022-10-09T08:53:29.959Z,10.27
2022-10-09T08:55:58.588Z,10.41
2022-10-09T08:58:34.454Z,10.42
2022-10-09T09:01:07.962Z,10.49
2022-10-09T09:03:45.594Z,10.66
2022-10-09T09:06:21.176Z,10.92
2022-10-09T09:08:50.521Z,11.75
2022-10-09T09:11:43.931Z,12.75
2022-10-09T09:14:40.124Z,12.48
2022-10-09T09:17:29.823Z,12.52
2022-10-09T09:20:29.218Z,12.37
2022-10-09T09:22:58.936Z,12.30
2022-10-09T09:25:39.558Z,11.90
2022-10-09T09:28:33.875Z,12.11
2022-10-09T09:31:13.173Z,12.14
2022-10-09T09:33:56.315Z,12.15
2022-10-09T09:36:26.402Z,12.29
2022-10-09T09:41:41.190Z,12.38
2022-10-09T09:44:11.256Z,12.61
2022-10-09T09:46:40.075Z,12.57
2022-10-09T09:49:23.423Z,12.84
2022-10-09T09:51:51.256Z,12.90
2022-10-09T09:54:22.382Z,13.19
2022-10-09T09:57:12.102Z,13.43
2022-10-09T09:59:43.142Z,13.87
2022-10-09T10:02:15.230Z,14.34
2022-10-09T10:04:59.203Z,13.92
2022-10-09T10:07:34.270Z,14.35
2022-10-09T10:10:09.891Z,14.79
2022-10-09T10:12:45.458Z,15.18
2022-10-09T10:15:35.318Z,16.06
2022-10-09T10:18:13.008Z,15.85
2022-10-09T10:20:52.574Z,15.31
2022-10-09T10:23:29.890Z,15.19
2022-10-09T10:25:57.801Z,15.47
2022-10-09T10:28:31.224Z,15.97
2022-10-09T10:31:02.343Z,15.57
2022-10-09T10:33:31.239Z,15.16
2022-10-09T10:35:58.990Z,14.52
2022-10-09T10:38:41.303Z,14.67
2022-10-09T10:41:26.151Z,14.56
2022-10-09T10:44:03.762Z,15.34
2022-10-09T10:46:53.156Z,14.95
2022-10-09T10:49:21.308Z,15.45
2022-10-09T10:52:00.776Z,16.48
2022-10-09T10:54:27.087Z,16.99
2022-10-09T10:57:00.884Z,16.69
2022-10-09T10:59:44.423Z,16.36
2022-10-09T11:02:16.388Z,15.86
2022-10-09T11:04:45.707Z,15.70
2022-10-09T11:07:27.245Z,15.84
2022-10-09T11:10:02.768Z,15.65
2022-10-09T11:12:57.793Z,16.59
2022-10-09T11:15:37.740Z,17.42
2022-10-09T11:18:10.996Z,18.23
2022-10-09T11:20:43.297Z,19.19
2022-10-09T11:23:26.822Z,19.58
2022-10-09T11:26:08.768Z,19.21
2022-10-09T11:28:43.243Z,18.69
2022-10-09T11:31:22.773Z,19.57
2022-10-09T11:33:58.229Z,18.84
2022-10-09T11:36:34.451Z,19.19
2022-10-09T11:39:05.266Z,19.45
2022-10-09T11:41:32.144Z,18.99
2022-10-09T11:44:35.052Z,19.11
2022-10-09T11:47:30.893Z,18.03
2022-10-09T11:50:15.300Z,17.43
2022-10-09T11:52:55.970Z,18.79
2022-10-09T11:55:25.009Z,18.76
2022-10-09T11:57:51.849Z,19.81
2022-10-09T12:00:33.724Z,19.51
2022-10-09T12:03:03.839Z,19.18
2022-10-09T12:05:36.434Z,20.83
2022-10-09T12:08:12.051Z,20.51
2022-10-09T12:10:55.426Z,19.03
2022-10-09T12:13:52.509Z,17.72
2022-10-09T12:16:35.733Z,18.76
2022-10-09T12:19:10.965Z,16.92
2022-10-09T12:21:45.980Z,16.24
2022-10-09T12:24:26.171Z,16.85
2022-10-09T12:26:55.531Z,17.70
2022-10-09T12:29:27.612Z,18.48
2022-10-09T12:31:58.335Z,18.54
2022-10-09T12:34:36.413Z,19.05
2022-10-09T12:37:09.389Z,17.53
2022-10-09T12:39:37.442Z,17.56
2022-10-09T12:42:04.640Z,17.31
2022-10-09T12:44:39.832Z,16.63
2022-10-09T12:47:17.577Z,16.40
2022-10-09T12:49:54.504Z,16.11
2022-10-09T12:52:20.839Z,15.70
2022-10-09T12:54:47.191Z,15.81
2022-10-09T12:57:16.231Z,15.53
2022-10-09T12:59:47.708Z,15.88
2022-10-09T13:02:18.356Z,16.84
2022-10-09T13:04:56.818Z,16.34
2022-10-09T13:07:26.311Z,16.22
2022-10-09T13:09:59.200Z,16.57
2022-10-09T13:12:27.528Z,16.02
2022-10-09T13:15:05.260Z,15.63
2022-10-09T13:17:39.574Z,15.92
2022-10-09T13:20:11.911Z,15.92
2022-10-09T13:22:39.678Z,15.55
2022-10-09T13:25:06.675Z,15.10
2022-10-09T13:27:37.880Z,14.52
2022-10-09T13:30:05.547Z,14.47
2022-10-09T13:32:32.302Z,14.55
2022-10-09T13:34:58.732Z,14.18
2022-10-09T13:37:26.517Z,13.92
2022-10-09T13:39:54.307Z,13.61
2022-10-09T13:42:22.727Z,13.58
2022-10-09T13:44:49.136Z,13.74
2022-10-09T13:47:19.647Z,13.36
2022-10-09T13:49:50.183Z,13.11
2022-10-09T13:52:16.598Z,13.01
2022-10-09T13:54:43.073Z,12.95
2022-10-09T13:57:09.511Z,12.93
2022-10-09T13:59:35.952Z,12.95
2022-10-09T14:02:02.356Z,12.92
2022-10-09T14:04:29.506Z,12.88
2022-10-09T14:06:56.023Z,12.84
2022-10-09T14:09:22.531Z,12.78
2022-10-09T14:11:48.974Z,12.74
2022-10-09T14:14:15.474Z,12.78
2022-10-09T14:16:41.956Z,12.79
2022-10-09T14:19:09.624Z,12.69
2022-10-09T14:21:35.999Z,12.71
2022-10-09T14:24:05.000Z,12.67
2022-10-09T14:26:32.415Z,12.71
2022-10-09T14:29:00.561Z,12.67
2022-10-09T14:31:27.304Z,12.59
2022-10-09T14:33:56.831Z,12.58
2022-10-09T14:36:23.574Z,12.57
2022-10-09T14:38:50.612Z,12.70
2022-10-09T14:41:17.911Z,12.64
2022-10-09T14:43:48.426Z,12.65
2022-10-09T14:46:17.268Z,12.68
2022-10-09T14:48:45.198Z,12.59
2022-10-09T14:51:15.067Z,12.51
2022-10-09T14:53:41.545Z,12.49
2022-10-09T14:56:11.459Z,12.53
2022-10-09T14:58:39.333Z,12.54
2022-10-09T15:01:06.484Z,12.53
2022-10-09T15:03:34.747Z,12.52
2022-10-09T15:06:04.092Z,12.51
2022-10-09T15:08:31.545Z,12.45
2022-10-09T15:10:57.979Z,12.35
2022-10-09T15:13:24.449Z,12.31
2022-10-09T15:15:50.868Z,12.34
2022-10-09T15:18:17.293Z,12.34
2022-10-09T15:20:45.283Z,12.35
2022-10-09T15:23:12.527Z,12.37
2022-10-09T15:25:39.070Z,12.34
2022-10-09T15:28:06.763Z,12.27
2022-10-09T15:30:33.144Z,12.16
2022-10-09T15:33:02.988Z,12.05
2022-10-09T15:35:29.451Z,11.99
2022-10-09T15:37:55.985Z,11.96
2022-10-09T15:40:22.331Z,11.91
2022-10-09T15:42:48.963Z,11.92
2022-10-09T15:45:15.711Z,11.88
2022-10-09T15:47:50.811Z,11.85
2022-10-09T15:50:18.092Z,11.82
2022-10-09T15:52:44.528Z,11.81
2022-10-09T15:55:10.882Z,11.80
2022-10-09T15:57:37.214Z,11.78
2022-10-09T16:00:04.256Z,11.80
2022-10-09T16:02:30.707Z,11.77
2022-10-09T16:04:57.079Z,11.71
2022-10-09T16:07:23.470Z,11.67
2022-10-09T16:09:49.986Z,11.63
2022-10-09T16:12:16.318Z,11.58
2022-10-09T16:14:42.752Z,11.54
2022-10-09T16:17:11.442Z,11.53
2022-10-09T16:19:37.925Z,11.52
2022-10-09T16:22:05.691Z,11.45
2022-10-09T16:24:32.320Z,11.40
2022-10-09T16:26:59.338Z,11.37
2022-10-09T16:29:25.731Z,11.36
2022-10-09T16:31:54.826Z,11.34
2022-10-09T16:34:21.246Z,11.31
2022-10-09T16:36:47.598Z,11.23
2022-10-09T16:39:13.943Z,11.21
2022-10-09T16:41:42.102Z,11.16
2022-10-09T16:44:13.866Z,11.11
2022-10-09T16:46:40.367Z,11.02
2022-10-09T16:49:06.839Z,10.98
2022-10-09T16:51:36.052Z,10.93
2022-10-09T16:54:05.821Z,10.90
2022-10-09T16:56:36.228Z,10.87
2022-10-09T16:59:06.601Z,10.84
2022-10-09T17:01:35.894Z,10.77
2022-10-09T17:04:02.280Z,10.71
2022-10-09T17:06:28.727Z,10.66
2022-10-09T17:08:57.623Z,10.61
2022-10-09T17:11:25.612Z,10.57
2022-10-09T17:13:56.476Z,10.52
2022-10-09T17:16:26.604Z,10.51
2022-10-09T17:18:54.322Z,10.49
2022-10-09T17:21:21.227Z,10.46
2022-10-09T17:23:47.872Z,10.40
2022-10-09T17:26:17.164Z,10.34
2022-10-09T17:28:44.369Z,10.29
2022-10-09T17:31:15.611Z,10.16
2022-10-09T17:33:45.749Z,10.16
2022-10-09T17:36:14.138Z,10.11
2022-10-09T17:38:40.522Z,10.04
2022-10-09T17:41:08.796Z,10.04
2022-10-09T17:43:35.218Z,10.06
2022-10-09T17:46:01.727Z,10.06
2022-10-09T17:48:29.582Z,10.05
2022-10-09T17:50:57.806Z,10.01
2022-10-09T17:53:24.918Z,9.98
2022-10-09T17:55:54.222Z,9.92
2022-10-09T17:58:22.816Z,9.90
2022-10-09T18:00:50.376Z,9.95
2022-10-09T18:03:18.352Z,9.89
2022-10-09T18:05:47.620Z,9.86
2022-10-09T18:08:15.822Z,9.83
2022-10-09T18:10:42.408Z,9.81
2022-10-09T18:13:10.006Z,9.77
2022-10-09T18:15:41.800Z,9.79
2022-10-09T18:18:08.819Z,9.77
2022-10-09T18:20:36.528Z,9.78
2022-10-09T18:23:03.476Z,9.71
2022-10-09T18:25:30.129Z,9.68
2022-10-09T18:27:56.673Z,9.67
2022-10-09T18:30:23.414Z,9.67
2022-10-09T18:32:49.932Z,9.68
2022-10-09T18:35:16.626Z,9.66
2022-10-09T18:37:42.962Z,9.61
2022-10-09T18:40:09.888Z,9.61
2022-10-09T18:42:36.298Z,9.55
2022-10-09T18:45:03.181Z,9.57
2022-10-09T18:47:33.448Z,9.55
2022-10-09T18:50:05.676Z,9.58
2022-10-09T18:52:32.081Z,9.51
2022-10-09T18:54:58.663Z,9.47
2022-10-09T18:57:26.447Z,9.44
2022-10-09T18:59:55.478Z,9.39
2022-10-09T19:02:26.150Z,9.33
2022-10-09T19:04:55.840Z,9.32
2022-10-09T19:07:22.409Z,9.31
2022-10-09T19:09:53.597Z,9.25
2022-10-09T19:12:22.816Z,9.24
2022-10-09T19:14:49.410Z,9.20
2022-10-09T19:17:15.979Z,9.18
2022-10-09T19:19:42.282Z,9.14
2022-10-09T19:22:10.664Z,9.12
2022-10-09T19:24:40.522Z,9.11
2022-10-09T19:27:07.003Z,9.07
2022-10-09T19:29:33.474Z,8.99
2022-10-09T19:31:59.898Z,8.91
2022-10-09T19:34:26.360Z,8.83
2022-10-09T19:36:52.824Z,8.76
2022-10-09T19:39:20.135Z,8.67
2022-10-09T19:41:48.616Z,8.59
2022-10-09T19:44:15.544Z,8.49
2022-10-09T19:46:41.990Z,8.45
2022-10-09T19:49:09.220Z,8.40
2022-10-09T19:51:36.924Z,8.32
2022-10-09T19:54:06.979Z,8.25
2022-10-09T19:56:34.506Z,8.17
2022-10-09T19:59:03.879Z,8.12
2022-10-09T20:01:32.679Z,8.08
2022-10-09T20:04:04.767Z,8.05
2022-10-09T20:06:31.453Z,8.02
2022-10-09T20:08:57.780Z,7.99
2022-10-09T20:11:26.132Z,7.94
2022-10-09T20:13:55.997Z,7.93
2022-10-09T20:16:24.114Z,7.90
2022-10-09T20:18:51.575Z,7.90
2022-10-09T20:21:18.325Z,7.88
2022-10-09T20:23:44.879Z,7.85
2022-10-09T20:26:14.707Z,7.79
2022-10-09T20:28:42.300Z,7.74
2022-10-09T20:31:14.500Z,7.73
2022-10-09T20:33:42.182Z,7.70
2022-10-09T20:36:17.321Z,7.67
2022-10-09T20:38:43.670Z,7.63
2022-10-09T20:41:09.997Z,7.58
2022-10-09T20:43:37.259Z,7.54
2022-10-09T20:46:13.348Z,7.52
2022-10-09T20:48:41.014Z,7.53
2022-10-09T20:51:07.448Z,7.52
2022-10-09T20:53:34.169Z,7.54
2022-10-09T20:56:06.635Z,7.50
2022-10-09T20:58:34.155Z,7.56
2022-10-09T21:01:03.218Z,7.50
2022-10-09T21:03:29.612Z,7.47
2022-10-09T21:05:55.980Z,7.54
2022-10-09T21:08:22.422Z,7.51
2022-10-09T21:10:50.251Z,7.56
2022-10-09T21:13:16.939Z,7.57
2022-10-09T21:15:48.285Z,7.55
2022-10-09T21:18:16.460Z,7.55
2022-10-09T21:20:44.640Z,7.56
2022-10-09T21:23:12.624Z,7.58
2022-10-09T21:25:45.771Z,7.60
2022-10-09T21:28:12.164Z,7.61
2022-10-09T21:30:41.476Z,7.58
2022-10-09T21:33:08.514Z,7.59
2022-10-09T21:35:39.339Z,7.60
2022-10-09T21:38:05.851Z,7.64
2022-10-09T21:40:32.248Z,7.67
2022-10-09T21:42:58.875Z,7.69
2022-10-09T21:45:25.210Z,7.67
2022-10-09T21:47:51.570Z,7.67
2022-10-09T21:50:17.892Z,7.69
2022-10-09T21:52:44.219Z,7.73
2022-10-09T21:55:10.659Z,7.79
2022-10-09T21:57:37.016Z,7.78
2022-10-09T22:00:04.737Z,7.84
2022-10-09T22:02:31.416Z,7.86
2022-10-09T22:04:57.755Z,7.87
2022-10-09T22:07:26.305Z,7.89
2022-10-09T22:09:53.288Z,7.93
2022-10-09T22:12:19.724Z,7.97
2022-10-09T22:14:46.347Z,7.98
2022-10-09T22:17:12.765Z,7.99
2022-10-09T22:19:39.159Z,7.99
2022-10-09T22:22:05.550Z,7.92
2022-10-09T22:24:32.130Z,7.95
2022-10-09T22:26:59.053Z,7.99
2022-10-09T22:29:26.651Z,8.00
2022-10-09T22:31:53.640Z,7.99
2022-10-09T22:34:19.981Z,8.04
2022-10-09T22:36:46.614Z,8.03
2022-10-09T22:39:12.986Z,8.03
2022-10-09T22:41:39.938Z,8.04
2022-10-09T22:44:08.305Z,8.05
2022-10-09T22:46:38.225Z,8.06
2022-10-09T22:49:06.105Z,8.09
2022-10-09T22:51:32.553Z,8.08
2022-10-09T22:54:00.061Z,8.10
2022-10-09T22:56:46.447Z,8.18
2022-10-09T22:59:15.816Z,8.17
2022-10-09T23:01:53.279Z,8.20
2022-10-09T23:04:20.769Z,8.17
2022-10-09T23:06:53.989Z,8.19
2022-10-09T23:09:22.040Z,8.15
2022-10-09T23:11:48.784Z,8.13
2022-10-09T23:14:15.355Z,8.09
2022-10-09T23:16:42.914Z,8.15
2022-10-09T23:19:10.360Z,8.16
2022-10-09T23:21:39.707Z,8.19
2022-10-09T23:24:07.766Z,8.23
2022-10-09T23:26:35.515Z,8.21
2022-10-09T23:29:08.500Z,8.22
2022-10-09T23:31:35.857Z,8.25
2022-10-09T23:34:03.928Z,8.24
2022-10-09T23:36:30.715Z,8.25
2022-10-09T23:38:58.063Z,8.16
2022-10-09T23:41:26.478Z,8.25
2022-10-09T23:43:53.407Z,8.22
2022-10-09T23:46:24.473Z,8.20
2022-10-09T23:48:51.172Z,8.14
2022-10-09T23:51:18.965Z,8.11
2022-10-09T23:53:46.489Z,8.03
2022-10-09T23:56:18.870Z,7.94
2022-10-09T23:58:46.247Z,7.90
